Disclaimer

Please do not use the information listed here in-flight or in-navigation, as they are not provided to us by the airports but are provided by volunteers, so they might be outdated.

Search


Regions


Airport information page

Radio informations:
RDO - 118.05 MHz

Airport informations:
Latitude: 56° 27' 48.60" N
Longitude: 005° 23' 58.80" W
Elevation: 20 feet - 6 meters
Operating hours: N/A
Operating agency: Civil government, landing fees and diplomatic clearance may be required
Timezone: UTC 0(+1DT)
Fuel: Jet A1, without icing nhibitor.

100/130 MIL Spec, low lead, aviation gasoline (BLUE)

Runway information:
01/19 - 4068 x 98 feet< - >1240 x 30 meters
04/22 - 2953 x 98 feet< - >900 x 30 meters

Recent METARs:
EGEO 191550Z 11007KT 9999 SCT037 09/02 Q1028
EGEO 191550Z 11007KT 9999 SCT037 09/02 Q1028
EGEO 191550Z 11007KT 9999 SCT037 09/02 Q1028

Airport on the map: